createdAt,value
2022-11-13T00:00:14.301Z,2.65
2022-11-13T00:00:47.435Z,2.60
2022-11-13T00:02:09.403Z,2.61
2022-11-13T00:02:54.843Z,2.60
2022-11-13T00:04:03.645Z,2.63
2022-11-13T00:05:31.131Z,2.60
2022-11-13T00:06:46.703Z,2.60
2022-11-13T00:07:28.580Z,2.63
2022-11-13T00:08:05.866Z,2.57
2022-11-13T00:09:32.803Z,2.57
2022-11-13T00:11:16.315Z,2.63
2022-11-13T00:13:30.020Z,2.57
2022-11-13T00:14:47.938Z,2.54
2022-11-13T00:14:58.287Z,2.55
2022-11-13T00:16:11.778Z,2.57
2022-11-13T00:19:08.248Z,2.61
2022-11-13T00:19:15.497Z,2.57
2022-11-13T00:20:32.067Z,2.60
2022-11-13T00:21:31.036Z,2.57
2022-11-13T00:22:23.285Z,2.51
2022-11-13T00:23:17.877Z,2.53
2022-11-13T00:26:49.799Z,2.48
2022-11-13T00:27:18.274Z,2.48
2022-11-13T00:28:59.204Z,2.45
2022-11-13T00:32:26.241Z,2.45
2022-11-13T00:33:38.305Z,2.55
2022-11-13T00:35:07.762Z,2.63
2022-11-13T00:35:32.053Z,2.71
2022-11-13T00:36:52.791Z,2.66
2022-11-13T00:38:26.842Z,2.72
2022-11-13T00:38:36.830Z,2.72
2022-11-13T00:39:37.933Z,2.75
2022-11-13T00:40:44.711Z,2.75
2022-11-13T00:42:27.663Z,2.76
2022-11-13T00:42:35.689Z,2.76
2022-11-13T00:43:34.922Z,2.75
2022-11-13T00:44:42.705Z,2.73
2022-11-13T00:45:32.896Z,2.72
2022-11-13T00:47:45.890Z,2.72
2022-11-13T00:48:44.868Z,2.69
2022-11-13T00:49:37.144Z,2.71
2022-11-13T00:51:24.784Z,2.75
2022-11-13T00:52:30.530Z,2.71
2022-11-13T00:55:29.521Z,2.71
2022-11-13T00:55:50.219Z,2.68
2022-11-13T00:57:19.233Z,2.65
2022-11-13T00:58:32.741Z,2.63
2022-11-13T00:59:59.185Z,2.63
2022-11-13T01:00:27.644Z,2.66
2022-11-13T01:01:19.935Z,2.65
2022-11-13T01:03:33.922Z,2.57
2022-11-13T01:04:25.177Z,2.54
2022-11-13T01:05:02.164Z,2.53
2022-11-13T01:06:22.115Z,2.45
2022-11-13T01:06:42.859Z,2.47
2022-11-13T01:07:39.219Z,2.45
2022-11-13T01:08:46.525Z,2.39
2022-11-13T01:10:08.835Z,2.33
2022-11-13T01:10:38.575Z,2.29
2022-11-13T01:11:52.837Z,2.29
2022-11-13T01:13:23.967Z,2.22
2022-11-13T01:14:07.957Z,2.22
2022-11-13T01:15:13.728Z,2.18
2022-11-13T01:16:57.260Z,2.18
2022-11-13T01:18:00.951Z,2.15
2022-11-13T01:19:37.817Z,2.11
2022-11-13T01:23:34.305Z,2.10
2022-11-13T01:24:04.298Z,1.97
2022-11-13T01:26:59.332Z,1.91
2022-11-13T01:34:18.300Z,1.78
2022-11-13T01:37:12.769Z,1.48
2022-11-13T01:40:49.990Z,1.48
2022-11-13T01:42:16.728Z,1.35
2022-11-13T01:43:31.301Z,1.35
2022-11-13T01:43:41.659Z,1.36
2022-11-13T01:44:53.101Z,1.39
2022-11-13T01:45:39.199Z,1.36
2022-11-13T01:46:42.881Z,1.36
2022-11-13T01:47:36.284Z,1.42
2022-11-13T01:48:46.111Z,1.41
2022-11-13T01:49:55.479Z,1.41
2022-11-13T01:51:01.240Z,1.44
2022-11-13T01:51:37.529Z,1.42
2022-11-13T01:52:46.383Z,1.41
2022-11-13T01:53:37.143Z,1.39
2022-11-13T01:54:40.824Z,1.42
2022-11-13T01:55:45.045Z,1.42
2022-11-13T01:56:46.902Z,1.41
2022-11-13T01:57:49.323Z,1.44
2022-11-13T01:58:35.910Z,1.42
2022-11-13T01:59:42.764Z,1.39
2022-11-13T02:00:36.879Z,1.41
2022-11-13T02:01:54.886Z,1.44
2022-11-13T02:02:38.273Z,1.41
2022-11-13T02:04:55.930Z,1.41
2022-11-13T02:06:03.120Z,1.41
2022-11-13T02:06:59.475Z,1.45
2022-11-13T02:07:58.890Z,1.44
2022-11-13T02:08:59.907Z,1.48
2022-11-13T02:09:56.234Z,1.48
2022-11-13T02:10:55.841Z,1.45
2022-11-13T02:12:02.367Z,1.46
2022-11-13T02:12:56.091Z,1.44
2022-11-13T02:13:56.062Z,1.41
2022-11-13T02:15:04.311Z,1.42
2022-11-13T02:15:59.634Z,1.45
2022-11-13T02:16:57.088Z,1.45
2022-11-13T02:18:00.285Z,1.45
2022-11-13T02:18:59.881Z,1.48
2022-11-13T02:20:01.504Z,1.48
2022-11-13T02:20:55.714Z,1.49
2022-11-13T02:21:55.722Z,1.49
2022-11-13T02:22:56.076Z,1.48
2022-11-13T02:23:55.693Z,1.48
2022-11-13T02:24:58.265Z,1.48
2022-11-13T02:25:55.657Z,1.48
2022-11-13T02:26:55.654Z,1.48
2022-11-13T02:27:55.895Z,1.48
2022-11-13T02:28:56.526Z,1.49
2022-11-13T02:29:57.108Z,1.53
2022-11-13T02:30:55.610Z,1.53
2022-11-13T02:31:55.723Z,1.52
2022-11-13T02:32:56.825Z,1.49
2022-11-13T02:33:56.365Z,1.55
2022-11-13T02:34:59.025Z,1.52
2022-11-13T02:35:57.557Z,1.53
2022-11-13T02:37:08.475Z,1.53
2022-11-13T02:38:05.470Z,1.52
2022-11-13T02:39:06.057Z,1.56
2022-11-13T02:39:56.265Z,1.55
2022-11-13T02:40:56.815Z,1.57
2022-11-13T02:41:56.345Z,1.59
2022-11-13T02:42:56.439Z,1.59
2022-11-13T02:43:58.585Z,1.63
2022-11-13T02:45:11.089Z,1.62
2022-11-13T02:45:57.147Z,1.63
2022-11-13T02:46:59.789Z,1.62
2022-11-13T02:47:56.214Z,1.63
2022-11-13T02:49:00.657Z,1.66
2022-11-13T02:49:56.828Z,1.62
2022-11-13T02:50:59.473Z,1.62
2022-11-13T02:51:55.387Z,1.62
2022-11-13T02:52:59.664Z,1.57
2022-11-13T02:54:01.731Z,1.62
2022-11-13T02:55:00.736Z,1.57
2022-11-13T02:55:56.637Z,1.59
2022-11-13T02:57:08.094Z,1.53
2022-11-13T02:57:55.732Z,1.55
2022-11-13T02:59:01.449Z,1.48
2022-11-13T02:59:58.421Z,1.52
2022-11-13T03:00:56.426Z,1.52
2022-11-13T03:02:00.187Z,1.55
2022-11-13T03:02:57.079Z,1.55
2022-11-13T03:04:02.331Z,1.48
2022-11-13T03:05:13.004Z,1.48
2022-11-13T03:05:56.158Z,1.46
2022-11-13T03:06:57.417Z,1.45
2022-11-13T03:08:05.149Z,1.39
2022-11-13T03:08:55.359Z,1.35
2022-11-13T03:09:56.914Z,1.36
2022-11-13T03:10:58.633Z,1.35
2022-11-13T03:11:58.741Z,1.35
2022-11-13T03:12:55.203Z,1.36
2022-11-13T03:14:01.492Z,1.35
2022-11-13T03:15:04.650Z,1.31
2022-11-13T03:15:55.930Z,1.34
2022-11-13T03:17:08.450Z,1.34
2022-11-13T03:17:56.120Z,1.36
2022-11-13T03:18:59.827Z,1.31
2022-11-13T03:19:59.880Z,1.34
2022-11-13T03:20:55.208Z,1.31
2022-11-13T03:22:02.164Z,1.31
2022-11-13T03:23:02.270Z,1.31
2022-11-13T03:24:13.211Z,1.30
2022-11-13T03:24:54.921Z,1.27
2022-11-13T03:25:59.379Z,1.27
2022-11-13T03:26:57.839Z,1.28
2022-11-13T03:28:15.642Z,1.27
2022-11-13T03:28:54.861Z,1.24
2022-11-13T03:30:00.293Z,1.23
2022-11-13T03:31:08.642Z,1.20
2022-11-13T03:32:09.253Z,1.17
2022-11-13T03:32:55.060Z,1.16
2022-11-13T03:34:00.602Z,1.18
2022-11-13T03:34:56.532Z,1.17
2022-11-13T03:35:56.595Z,1.13
2022-11-13T03:36:57.183Z,1.13
2022-11-13T03:37:57.793Z,1.12
2022-11-13T03:38:54.739Z,1.10
2022-11-13T03:40:00.011Z,1.12
2022-11-13T03:40:58.544Z,1.13
2022-11-13T03:41:55.541Z,1.10
2022-11-13T03:43:00.857Z,1.09
2022-11-13T03:43:56.755Z,1.12
2022-11-13T03:44:54.684Z,1.13
2022-11-13T03:45:55.841Z,1.13
2022-11-13T03:46:55.911Z,1.12
2022-11-13T03:47:57.035Z,1.12
2022-11-13T03:48:57.614Z,1.09
2022-11-13T03:49:56.687Z,1.06
2022-11-13T03:50:54.698Z,1.03
2022-11-13T03:51:54.596Z,0.98
2022-11-13T03:52:55.405Z,0.96
2022-11-13T03:53:54.951Z,0.98
2022-11-13T03:54:54.541Z,0.99
2022-11-13T03:55:54.666Z,0.99
2022-11-13T03:56:54.515Z,1.02
2022-11-13T03:57:54.515Z,1.00
2022-11-13T03:58:54.862Z,1.02
2022-11-13T03:59:54.915Z,0.99
2022-11-13T04:00:54.469Z,0.96
2022-11-13T04:01:54.587Z,1.02
2022-11-13T04:02:54.453Z,0.98
2022-11-13T04:03:54.455Z,1.00
2022-11-13T04:04:54.435Z,0.98
2022-11-13T04:05:54.415Z,0.94
2022-11-13T04:06:54.426Z,0.94
2022-11-13T04:07:54.398Z,0.92
2022-11-13T04:08:55.677Z,0.96
2022-11-13T04:09:55.227Z,0.90
2022-11-13T04:10:55.823Z,0.90
2022-11-13T04:11:54.367Z,0.90
2022-11-13T04:12:54.467Z,0.90
2022-11-13T04:13:56.606Z,0.84
2022-11-13T04:14:54.298Z,0.85
2022-11-13T04:15:54.297Z,0.81
2022-11-13T04:16:54.283Z,0.81
2022-11-13T04:17:54.291Z,0.84
2022-11-13T04:18:54.278Z,0.82
2022-11-13T04:19:54.230Z,0.84
2022-11-13T04:20:54.232Z,0.85
2022-11-13T04:21:54.220Z,0.81
2022-11-13T04:22:54.206Z,0.84
2022-11-13T04:23:54.180Z,0.82
2022-11-13T04:24:54.580Z,0.80
2022-11-13T04:25:54.164Z,0.76
2022-11-13T04:26:54.159Z,0.78
2022-11-13T04:27:54.151Z,0.81
2022-11-13T04:28:54.127Z,0.76
2022-11-13T04:29:54.109Z,0.76
2022-11-13T04:30:54.111Z,0.70
2022-11-13T04:31:54.089Z,0.76
2022-11-13T04:32:54.080Z,0.74
2022-11-13T04:33:54.068Z,0.72
2022-11-13T04:34:54.071Z,0.72
2022-11-13T04:35:54.032Z,0.74
2022-11-13T04:36:54.022Z,0.78
2022-11-13T04:37:54.023Z,0.81
2022-11-13T04:38:54.264Z,0.76
2022-11-13T04:39:53.991Z,0.80
2022-11-13T04:40:53.978Z,0.78
2022-11-13T04:41:55.536Z,0.76
2022-11-13T04:42:53.954Z,0.76
2022-11-13T04:43:53.950Z,0.74
2022-11-13T04:44:53.932Z,0.74
2022-11-13T04:45:53.912Z,0.76
2022-11-13T04:46:53.903Z,0.73
2022-11-13T04:47:53.891Z,0.74
2022-11-13T04:48:53.876Z,0.78
2022-11-13T04:49:53.851Z,0.73
2022-11-13T04:50:53.873Z,0.72
2022-11-13T04:51:53.832Z,0.72
2022-11-13T04:52:53.835Z,0.72
2022-11-13T04:53:53.817Z,0.67
2022-11-13T04:54:53.813Z,0.67
2022-11-13T04:55:53.788Z,0.63
2022-11-13T04:56:53.773Z,0.62
2022-11-13T04:57:53.773Z,0.62
2022-11-13T04:58:53.765Z,0.59
2022-11-13T04:59:53.737Z,0.59
2022-11-13T05:00:53.723Z,0.62
2022-11-13T05:01:53.781Z,0.62
2022-11-13T05:02:54.103Z,0.62
2022-11-13T05:03:53.684Z,0.60
2022-11-13T05:04:53.683Z,0.62
2022-11-13T05:05:53.664Z,0.56
2022-11-13T05:06:53.723Z,0.64
2022-11-13T05:07:53.874Z,0.62
2022-11-13T05:08:53.914Z,0.60
2022-11-13T05:09:53.634Z,0.62
2022-11-13T05:10:54.563Z,0.60
2022-11-13T05:11:53.585Z,0.56
2022-11-13T05:12:53.590Z,0.56
2022-11-13T05:13:53.565Z,0.53
2022-11-13T05:14:53.547Z,0.51
2022-11-13T05:15:53.985Z,0.51
2022-11-13T05:16:53.595Z,0.48
2022-11-13T05:17:56.842Z,0.37
2022-11-13T05:18:54.375Z,0.40
2022-11-13T05:20:01.253Z,0.36
2022-11-13T05:20:54.706Z,0.33
2022-11-13T05:21:58.998Z,0.35
2022-11-13T05:31:20.343Z,0.36
2022-11-13T05:31:26.539Z,0.47
2022-11-13T05:32:25.107Z,0.48
2022-11-13T05:33:25.078Z,0.51
2022-11-13T05:34:25.076Z,0.50
2022-11-13T05:35:25.057Z,0.59
2022-11-13T05:36:25.052Z,0.48
2022-11-13T05:37:25.048Z,0.48
2022-11-13T05:38:25.193Z,0.48
2022-11-13T05:39:25.008Z,0.44
2022-11-13T05:40:25.006Z,0.44
2022-11-13T05:41:24.991Z,0.44
2022-11-13T05:42:24.989Z,0.44
2022-11-13T05:43:24.961Z,0.44
2022-11-13T05:44:24.948Z,0.44
2022-11-13T05:45:24.963Z,0.43
2022-11-13T05:46:24.965Z,0.40
2022-11-13T05:47:24.919Z,0.37
2022-11-13T05:48:24.964Z,0.37
2022-11-13T05:49:24.886Z,0.40
2022-11-13T05:50:24.876Z,0.41
2022-11-13T05:51:24.868Z,0.40
2022-11-13T05:52:24.858Z,0.36
2022-11-13T05:53:24.830Z,0.32
2022-11-13T05:54:24.836Z,0.29
2022-11-13T05:55:24.820Z,0.23
2022-11-13T05:56:25.749Z,0.18
2022-11-13T05:57:24.790Z,0.17
2022-11-13T05:58:24.876Z,0.15
2022-11-13T05:59:24.763Z,0.12
2022-11-13T06:00:24.751Z,0.17
2022-11-13T06:01:24.732Z,0.15
2022-11-13T06:02:25.751Z,0.18
2022-11-13T06:03:24.711Z,0.18
2022-11-13T06:04:24.711Z,0.17
2022-11-13T06:05:24.688Z,0.14
2022-11-13T06:06:24.678Z,0.11
2022-11-13T06:07:24.703Z,0.09
2022-11-13T06:08:24.753Z,0.11
2022-11-13T06:09:24.633Z,0.08
2022-11-13T06:10:24.628Z,0.09
2022-11-13T06:11:24.613Z,0.09
2022-11-13T06:12:24.663Z,0.09
2022-11-13T06:13:24.582Z,0.04
2022-11-13T06:14:24.572Z,-0.01
2022-11-13T06:15:24.572Z,-0.04
2022-11-13T06:16:24.552Z,-0.11
2022-11-13T06:17:24.552Z,-0.14
2022-11-13T06:18:26.654Z,-0.21
2022-11-13T06:19:24.502Z,-0.24
2022-11-13T06:20:24.503Z,-0.28
2022-11-13T06:21:24.482Z,-0.22
2022-11-13T06:22:24.483Z,-0.22
2022-11-13T06:23:24.453Z,-0.17
2022-11-13T06:24:24.453Z,-0.16
2022-11-13T06:25:24.434Z,-0.16
2022-11-13T06:26:24.434Z,-0.17
2022-11-13T06:27:24.414Z,-0.20
2022-11-13T06:28:24.401Z,-0.17
2022-11-13T06:29:24.388Z,-0.14
2022-11-13T06:30:24.374Z,-0.13
2022-11-13T06:31:24.374Z,-0.13
2022-11-13T06:32:24.355Z,-0.14
2022-11-13T06:33:24.345Z,-0.13
2022-11-13T06:34:24.325Z,-0.13
2022-11-13T06:35:24.316Z,-0.14
2022-11-13T06:36:24.307Z,-0.17
2022-11-13T06:37:24.285Z,-0.11
2022-11-13T06:38:25.354Z,-0.11
2022-11-13T06:39:24.297Z,-0.13
2022-11-13T06:40:24.254Z,-0.13
2022-11-13T06:41:24.250Z,-0.11
2022-11-13T06:42:24.226Z,-0.17
2022-11-13T06:43:24.208Z,-0.16
2022-11-13T06:44:25.165Z,-0.17
2022-11-13T06:45:24.193Z,-0.20
2022-11-13T06:46:24.186Z,-0.20
2022-11-13T06:47:24.157Z,-0.31
2022-11-13T06:48:24.156Z,-0.34
2022-11-13T06:49:24.149Z,-0.29
2022-11-13T06:50:24.142Z,-0.24
2022-11-13T06:51:24.137Z,-0.20
2022-11-13T06:52:24.110Z,-0.21
2022-11-13T06:53:24.117Z,-0.17
2022-11-13T06:54:24.091Z,-0.16
2022-11-13T06:55:24.096Z,-0.11
2022-11-13T06:56:24.058Z,-0.09
2022-11-13T06:57:24.028Z,-0.09
2022-11-13T06:58:24.030Z,-0.06
2022-11-13T06:59:24.008Z,-0.03
2022-11-13T07:00:24.019Z,0.05
2022-11-13T07:01:24.011Z,0.05
2022-11-13T07:02:24.936Z,0.11
2022-11-13T07:03:23.968Z,0.14
2022-11-13T07:04:23.972Z,0.22
2022-11-13T07:05:23.949Z,0.22
2022-11-13T07:06:23.942Z,0.29
2022-11-13T07:07:23.957Z,0.26
2022-11-13T07:08:23.900Z,0.22
2022-11-13T07:09:23.882Z,0.14
2022-11-13T07:10:23.894Z,0.14
2022-11-13T07:11:23.862Z,0.14
2022-11-13T07:12:23.860Z,0.15
2022-11-13T07:13:23.840Z,0.20
2022-11-13T07:14:23.842Z,0.20
2022-11-13T07:15:23.870Z,0.23
2022-11-13T07:16:23.820Z,0.25
2022-11-13T07:17:23.812Z,0.27
2022-11-13T07:18:24.299Z,0.30
2022-11-13T07:19:23.790Z,0.36
2022-11-13T07:20:24.001Z,0.32
2022-11-13T07:21:23.752Z,0.22
2022-11-13T07:22:23.723Z,0.15
2022-11-13T07:23:23.722Z,0.08
2022-11-13T07:24:23.703Z,0.02
2022-11-13T07:25:23.703Z,-0.04
2022-11-13T07:26:23.673Z,-0.07
2022-11-13T07:27:23.669Z,-0.14
2022-11-13T07:28:23.653Z,-0.11
2022-11-13T07:29:23.643Z,-0.10
2022-11-13T07:30:23.633Z,-0.07
2022-11-13T07:31:23.622Z,-0.03
2022-11-13T07:32:23.602Z,-0.04
2022-11-13T07:33:23.592Z,-0.01
2022-11-13T07:34:23.583Z,0.05
2022-11-13T07:35:23.563Z,0.08
2022-11-13T07:36:23.553Z,0.11
2022-11-13T07:37:23.605Z,0.14
2022-11-13T07:38:23.533Z,0.22
2022-11-13T07:39:23.524Z,0.22
2022-11-13T07:40:23.532Z,0.27
2022-11-13T07:41:23.518Z,0.26
2022-11-13T07:42:23.485Z,0.29
2022-11-13T07:43:23.464Z,0.29
2022-11-13T07:44:47.805Z,0.29
2022-11-13T07:45:24.442Z,0.35
2022-11-13T07:46:23.444Z,0.36
2022-11-13T07:47:23.415Z,0.40
2022-11-13T07:48:23.405Z,0.40
2022-11-13T07:49:23.411Z,0.47
2022-11-13T07:50:23.380Z,0.47
2022-11-13T07:51:23.360Z,0.45
2022-11-13T07:52:23.355Z,0.47
2022-11-13T07:53:23.400Z,0.48
2022-11-13T07:54:23.340Z,0.50
2022-11-13T07:55:23.317Z,0.51
2022-11-13T07:56:23.468Z,0.59
2022-11-13T07:57:23.295Z,0.59
2022-11-13T07:58:23.287Z,0.60
2022-11-13T07:59:23.276Z,0.63
2022-11-13T08:00:23.425Z,0.56
2022-11-13T08:01:23.323Z,0.56
2022-11-13T08:02:26.571Z,0.62
2022-11-13T08:03:23.227Z,0.63
2022-11-13T08:04:23.218Z,0.66
2022-11-13T08:05:23.190Z,0.66
2022-11-13T08:06:23.188Z,0.69
2022-11-13T08:07:23.229Z,0.73
2022-11-13T08:08:23.177Z,0.73
2022-11-13T08:09:23.157Z,0.81
2022-11-13T08:10:23.146Z,0.84
2022-11-13T08:11:23.162Z,0.87
2022-11-13T08:12:23.111Z,0.92
2022-11-13T08:13:23.088Z,0.91
2022-11-13T08:14:23.108Z,0.98
2022-11-13T08:15:23.071Z,1.03
2022-11-13T08:16:23.059Z,1.06
2022-11-13T08:17:23.040Z,1.10
2022-11-13T08:18:23.039Z,1.18
2022-11-13T08:19:23.028Z,1.21
2022-11-13T08:20:23.019Z,1.24
2022-11-13T08:21:23.003Z,1.30
2022-11-13T08:22:22.991Z,1.36
2022-11-13T08:23:22.974Z,1.39
2022-11-13T08:24:22.970Z,1.56
2022-11-13T08:25:22.950Z,1.64
2022-11-13T08:26:22.942Z,1.74
2022-11-13T08:27:22.920Z,1.75
2022-11-13T08:28:22.910Z,1.67
2022-11-13T08:29:22.901Z,1.64
2022-11-13T08:30:22.894Z,1.62
2022-11-13T08:31:22.884Z,1.55
2022-11-13T08:32:22.891Z,1.48
2022-11-13T08:33:22.888Z,1.49
2022-11-13T08:34:22.863Z,1.52
2022-11-13T08:35:28.114Z,1.53
2022-11-13T08:36:23.814Z,1.62
2022-11-13T08:37:22.823Z,1.66
2022-11-13T08:38:22.792Z,1.60
2022-11-13T08:39:22.782Z,1.66
2022-11-13T08:40:22.793Z,1.67
2022-11-13T08:41:22.743Z,1.67
2022-11-13T08:42:22.730Z,1.64
2022-11-13T08:43:22.726Z,1.71
2022-11-13T08:44:22.733Z,1.63
2022-11-13T08:45:22.703Z,1.59
2022-11-13T08:46:22.683Z,1.55
2022-11-13T08:47:28.275Z,1.48
2022-11-13T08:48:23.674Z,1.52
2022-11-13T08:49:22.664Z,1.52
2022-11-13T08:50:22.645Z,1.55
2022-11-13T08:51:22.621Z,1.59
2022-11-13T08:52:22.614Z,1.64
2022-11-13T08:53:22.596Z,1.63
2022-11-13T08:54:22.595Z,1.67
2022-11-13T08:55:22.576Z,1.64
2022-11-13T08:56:22.566Z,1.71
2022-11-13T08:57:22.548Z,1.71
2022-11-13T08:58:22.542Z,1.73
2022-11-13T08:59:22.535Z,1.69
2022-11-13T09:00:22.507Z,1.80
2022-11-13T09:01:22.506Z,1.80
2022-11-13T09:02:22.486Z,1.80
2022-11-13T09:03:22.550Z,1.93
2022-11-13T09:04:22.478Z,2.06
2022-11-13T09:05:22.456Z,2.00
2022-11-13T09:06:22.437Z,2.11
2022-11-13T09:07:27.146Z,2.21
2022-11-13T09:08:23.676Z,2.28
2022-11-13T09:09:22.408Z,2.22
2022-11-13T09:10:22.380Z,2.21
2022-11-13T09:11:22.379Z,2.10
2022-11-13T09:12:22.365Z,2.06
2022-11-13T09:13:22.360Z,2.07
2022-11-13T09:14:22.329Z,2.14
2022-11-13T09:15:24.522Z,2.18
2022-11-13T09:16:22.309Z,2.17
2022-11-13T09:17:22.299Z,2.19
2022-11-13T09:18:23.229Z,2.17
2022-11-13T09:19:22.312Z,2.18
2022-11-13T09:20:23.114Z,2.25
2022-11-13T09:21:22.255Z,2.32
2022-11-13T09:22:22.231Z,2.32
2022-11-13T09:23:22.239Z,2.36
2022-11-13T09:24:22.221Z,2.48
2022-11-13T09:25:22.220Z,2.61
2022-11-13T09:26:22.182Z,2.66
2022-11-13T09:27:22.190Z,2.82
2022-11-13T09:28:22.150Z,2.97
2022-11-13T09:29:22.161Z,3.00
2022-11-13T09:30:22.135Z,2.94
2022-11-13T09:31:22.129Z,2.91
2022-11-13T09:32:22.100Z,2.90
2022-11-13T09:33:22.092Z,2.89
2022-11-13T09:34:22.103Z,2.90
2022-11-13T09:35:22.064Z,3.02
2022-11-13T09:36:22.055Z,3.17
2022-11-13T09:37:22.042Z,3.37
2022-11-13T09:38:22.022Z,3.52
2022-11-13T09:39:22.022Z,3.69
2022-11-13T09:40:22.037Z,3.80
2022-11-13T09:41:21.992Z,3.78
2022-11-13T09:42:21.976Z,3.87
2022-11-13T09:43:21.972Z,3.98
2022-11-13T09:44:21.944Z,3.98
2022-11-13T09:45:21.933Z,4.02
2022-11-13T09:46:21.922Z,4.05
2022-11-13T09:47:21.913Z,4.08
2022-11-13T09:48:21.903Z,4.03
2022-11-13T09:49:21.884Z,4.00
2022-11-13T09:50:21.942Z,4.00
2022-11-13T09:51:21.855Z,4.08
2022-11-13T09:52:21.845Z,4.06
2022-11-13T09:53:21.842Z,3.96
2022-11-13T09:54:21.816Z,3.92
2022-11-13T09:55:21.805Z,3.81
2022-11-13T09:56:21.784Z,3.72
2022-11-13T09:57:25.756Z,3.66
2022-11-13T09:58:21.765Z,3.70
2022-11-13T09:59:21.757Z,3.67
2022-11-13T10:00:21.841Z,3.60
2022-11-13T10:01:21.835Z,3.56
2022-11-13T10:02:21.707Z,3.54
2022-11-13T10:03:39.516Z,3.59
2022-11-13T10:04:22.686Z,3.62
2022-11-13T10:05:21.695Z,3.54
2022-11-13T10:06:21.685Z,3.52
2022-11-13T10:07:21.710Z,3.59
2022-11-13T10:08:21.656Z,3.67
2022-11-13T10:09:21.627Z,3.76
2022-11-13T10:10:21.713Z,3.73
2022-11-13T10:11:21.597Z,3.69
2022-11-13T10:12:21.605Z,3.66
2022-11-13T10:13:21.606Z,3.66
2022-11-13T10:14:21.579Z,3.67
2022-11-13T10:15:21.539Z,3.63
2022-11-13T10:16:21.528Z,3.64
2022-11-13T10:17:21.519Z,3.70
2022-11-13T10:18:21.520Z,3.82
2022-11-13T10:19:21.490Z,3.90
2022-11-13T10:20:21.477Z,4.06
2022-11-13T10:21:21.461Z,4.17
2022-11-13T10:22:36.801Z,4.26
2022-11-13T10:23:22.444Z,4.35
2022-11-13T10:24:21.419Z,4.31
2022-11-13T10:25:21.425Z,4.39
2022-11-13T10:26:21.390Z,4.41
2022-11-13T10:27:21.379Z,4.36
2022-11-13T10:28:48.768Z,4.45
2022-11-13T10:29:23.318Z,4.46
2022-11-13T10:30:21.343Z,4.51
2022-11-13T10:31:21.334Z,4.49
2022-11-13T10:32:21.312Z,4.54
2022-11-13T10:33:21.311Z,4.61
2022-11-13T10:34:21.300Z,4.69
2022-11-13T10:35:21.271Z,4.75
2022-11-13T10:36:21.261Z,4.75
2022-11-13T10:37:21.266Z,4.79
2022-11-13T10:38:21.247Z,4.83
2022-11-13T10:39:21.225Z,4.88
2022-11-13T10:40:21.213Z,4.79
2022-11-13T10:41:21.202Z,4.69
2022-11-13T10:42:21.183Z,4.59
2022-11-13T10:43:21.183Z,4.59
2022-11-13T10:44:21.168Z,4.59
2022-11-13T10:45:21.143Z,4.54
2022-11-13T10:46:21.133Z,4.54
2022-11-13T10:47:42.508Z,4.45
2022-11-13T10:48:22.113Z,4.49
2022-11-13T10:49:21.095Z,4.63
2022-11-13T10:50:21.082Z,4.74
2022-11-13T10:51:21.074Z,4.77
2022-11-13T10:52:21.072Z,4.78
2022-11-13T10:53:21.095Z,4.74
2022-11-13T10:54:21.034Z,4.78
2022-11-13T10:55:21.025Z,4.88
2022-11-13T10:56:21.006Z,4.97
2022-11-13T10:57:21.021Z,5.07
2022-11-13T10:58:21.008Z,5.14
2022-11-13T10:59:20.976Z,5.24
2022-11-13T11:00:20.944Z,5.19
2022-11-13T11:01:21.988Z,5.14
2022-11-13T11:02:21.872Z,5.14
2022-11-13T11:03:21.170Z,5.14
2022-11-13T11:04:20.897Z,5.19
2022-11-13T11:05:20.883Z,5.29
2022-11-13T11:06:20.874Z,5.27
2022-11-13T11:07:21.728Z,5.33
2022-11-13T11:08:20.856Z,5.27
2022-11-13T11:09:20.847Z,5.19
2022-11-13T11:10:20.818Z,5.21
2022-11-13T11:11:20.819Z,5.19
2022-11-13T11:12:24.357Z,5.22
2022-11-13T11:13:21.828Z,5.25
2022-11-13T11:14:20.768Z,5.25
2022-11-13T11:15:20.761Z,5.27
2022-11-13T11:16:20.735Z,5.21
2022-11-13T11:17:20.725Z,5.15
2022-11-13T11:18:20.719Z,5.09
2022-11-13T11:19:20.701Z,5.07
2022-11-13T11:20:20.700Z,5.07
2022-11-13T11:21:20.671Z,5.06
2022-11-13T11:22:20.660Z,5.14
2022-11-13T11:23:20.669Z,5.19
2022-11-13T11:24:20.637Z,5.24
2022-11-13T11:25:20.630Z,5.21
2022-11-13T11:26:20.611Z,5.21
2022-11-13T11:27:20.609Z,5.21
2022-11-13T11:28:20.602Z,5.24
2022-11-13T11:29:20.578Z,5.24
2022-11-13T11:30:20.562Z,5.21
2022-11-13T11:31:20.551Z,5.19
2022-11-13T11:32:20.531Z,5.32
2022-11-13T11:33:20.522Z,5.37
2022-11-13T11:34:20.503Z,5.34
2022-11-13T11:35:20.762Z,5.29
2022-11-13T11:36:20.485Z,5.27
2022-11-13T11:37:20.470Z,5.27
2022-11-13T11:38:20.465Z,5.25
2022-11-13T11:39:20.443Z,5.32
2022-11-13T11:40:20.444Z,5.37
2022-11-13T11:41:20.456Z,5.34
2022-11-13T11:42:20.404Z,5.27
2022-11-13T11:43:20.406Z,5.25
2022-11-13T11:44:20.375Z,5.25
2022-11-13T11:45:20.389Z,5.33
2022-11-13T11:46:20.356Z,5.54
2022-11-13T11:47:20.355Z,5.72
2022-11-13T11:48:20.335Z,5.80
2022-11-13T11:49:20.306Z,5.84
2022-11-13T11:50:20.298Z,5.82
2022-11-13T11:51:20.294Z,5.77
2022-11-13T11:52:20.277Z,5.67
2022-11-13T11:53:20.271Z,5.58
2022-11-13T11:54:20.246Z,5.52
2022-11-13T11:55:20.252Z,5.44
2022-11-13T11:56:20.476Z,5.37
2022-11-13T11:57:20.234Z,5.36
2022-11-13T11:58:20.197Z,5.39
2022-11-13T11:59:20.178Z,5.36
2022-11-13T12:00:20.171Z,5.33
2022-11-13T12:01:20.149Z,5.29
2022-11-13T12:02:20.144Z,5.19
2022-11-13T12:03:20.139Z,5.14
2022-11-13T12:04:20.118Z,5.12
2022-11-13T12:05:20.502Z,5.19
2022-11-13T12:06:20.088Z,5.30
2022-11-13T12:07:21.072Z,5.41
2022-11-13T12:08:20.059Z,5.57
2022-11-13T12:09:20.049Z,5.57
2022-11-13T12:10:20.038Z,5.57
2022-11-13T12:11:20.028Z,5.59
2022-11-13T12:12:20.029Z,5.65
2022-11-13T12:13:19.997Z,5.61
2022-11-13T12:14:19.982Z,5.55
2022-11-13T12:15:19.981Z,5.48
2022-11-13T12:16:24.614Z,5.41
2022-11-13T12:17:20.960Z,5.39
2022-11-13T12:18:19.982Z,5.39
2022-11-13T12:19:20.181Z,5.32
2022-11-13T12:20:19.900Z,5.30
2022-11-13T12:21:19.902Z,5.29
2022-11-13T12:22:19.890Z,5.25
2022-11-13T12:23:19.862Z,5.19
2022-11-13T12:24:19.849Z,5.19
2022-11-13T12:25:19.862Z,5.16
2022-11-13T12:26:19.853Z,5.15
2022-11-13T12:27:19.821Z,5.15
2022-11-13T12:28:19.810Z,5.15
2022-11-13T12:29:19.791Z,5.15
2022-11-13T12:30:19.773Z,5.16
2022-11-13T12:31:19.772Z,5.24
2022-11-13T12:32:19.766Z,5.33
2022-11-13T12:33:19.737Z,5.39
2022-11-13T12:34:19.734Z,5.51
2022-11-13T12:35:19.703Z,5.54
2022-11-13T12:36:19.695Z,5.54
2022-11-13T12:37:19.696Z,5.57
2022-11-13T12:38:19.665Z,5.59
2022-11-13T12:39:19.654Z,5.59
2022-11-13T12:40:19.634Z,5.69
2022-11-13T12:41:19.678Z,5.77
2022-11-13T12:42:19.615Z,5.76
2022-11-13T12:43:19.605Z,5.79
2022-11-13T12:44:19.587Z,5.87
2022-11-13T12:45:19.587Z,5.90
2022-11-13T12:46:19.563Z,5.91
2022-11-13T12:47:19.555Z,5.98
2022-11-13T12:48:20.492Z,6.05
2022-11-13T12:49:19.529Z,6.06
2022-11-13T12:50:19.527Z,6.08
2022-11-13T12:51:19.508Z,6.06
2022-11-13T12:52:19.477Z,6.05
2022-11-13T12:53:19.490Z,6.06
2022-11-13T12:54:19.457Z,6.06
2022-11-13T12:55:19.456Z,6.03
2022-11-13T12:56:19.443Z,6.03
2022-11-13T12:57:19.436Z,6.05
2022-11-13T12:58:19.407Z,6.06
2022-11-13T12:59:34.800Z,6.08
2022-11-13T13:00:20.379Z,6.12
2022-11-13T13:01:19.437Z,6.16
2022-11-13T13:02:19.357Z,6.18
2022-11-13T13:03:19.341Z,6.18
2022-11-13T13:04:19.319Z,6.16
2022-11-13T13:05:19.309Z,6.19
2022-11-13T13:06:19.300Z,6.24
2022-11-13T13:07:19.317Z,6.25
2022-11-13T13:08:19.267Z,6.25
2022-11-13T13:09:19.500Z,6.35
2022-11-13T13:10:19.269Z,6.40
2022-11-13T13:11:19.239Z,6.37
2022-11-13T13:12:19.232Z,6.38
2022-11-13T13:13:24.022Z,6.40
2022-11-13T13:14:20.261Z,6.45
2022-11-13T13:15:19.182Z,6.46
2022-11-13T13:16:19.171Z,6.52
2022-11-13T13:17:19.171Z,6.63
2022-11-13T13:18:19.135Z,6.64
2022-11-13T13:19:19.132Z,6.65
2022-11-13T13:20:19.101Z,6.70
2022-11-13T13:21:19.101Z,6.73
2022-11-13T13:22:19.074Z,6.75
2022-11-13T13:23:19.073Z,6.75
2022-11-13T13:24:19.083Z,6.74
2022-11-13T13:25:19.095Z,6.74
2022-11-13T13:26:19.042Z,6.78
2022-11-13T13:27:19.022Z,6.78
2022-11-13T13:28:19.016Z,6.81
2022-11-13T13:29:18.983Z,6.78
2022-11-13T13:30:18.984Z,6.82
2022-11-13T13:31:18.975Z,6.85
2022-11-13T13:32:21.103Z,6.85
2022-11-13T13:33:18.934Z,6.92
2022-11-13T13:34:18.919Z,6.93
2022-11-13T13:35:18.914Z,6.96
2022-11-13T13:36:18.915Z,6.97
2022-11-13T13:37:18.886Z,6.96
2022-11-13T13:38:18.865Z,6.97
2022-11-13T13:39:18.845Z,7.01
2022-11-13T13:40:18.842Z,7.06
2022-11-13T13:41:18.835Z,7.04
2022-11-13T13:42:18.815Z,7.06
2022-11-13T13:43:18.796Z,7.08
2022-11-13T13:44:18.804Z,7.19
2022-11-13T13:45:24.721Z,7.19
2022-11-13T13:46:19.769Z,7.21
2022-11-13T13:47:18.740Z,7.19
2022-11-13T13:48:18.728Z,7.26
2022-11-13T13:49:18.717Z,7.25
2022-11-13T13:50:18.702Z,7.29
2022-11-13T13:51:18.697Z,7.31
2022-11-13T13:52:18.679Z,7.33
2022-11-13T13:53:18.659Z,7.37
2022-11-13T13:54:18.647Z,7.40